Time;durP1;ratioP1;P1;durP2;ratioP2;P2;SDS_P1;SDS_P2;PMS_P1;PMS_P2;Temp;Humidity;BMP_temperature;BMP_pressure;BME280_temperature;BME280_humidity;BME280_pressure;Samples;Min_cycle;Max_cycle;Signal;HPM_P1;HPM_P2
2023/06/08 00:01:52;;;;;;;15.45;7.30;;;;;;;16.23;77.09;101774.41;5083403;28;20032;-70
2023/06/08 00:04:18;;;;;;;11.80;7.63;;;;;;;16.14;76.91;101771.13;5081647;28;20024;-70
2023/06/08 00:06:44;;;;;;;19.38;7.57;;;;;;;16.15;78.23;101770.25;5082992;28;20039;-70
2023/06/08 00:09:09;;;;;;;18.25;8.32;;;;;;;16.06;77.58;101762.66;5083568;28;20110;-70
2023/06/08 00:11:35;;;;;;;16.23;7.65;;;;;;;15.97;77.65;101765.56;5082408;28;20375;-70
2023/06/08 00:14:00;;;;;;;15.20;7.55;;;;;;;15.93;77.89;101771.84;5083401;28;20020;-70
2023/06/08 00:16:29;;;;;;;16.70;7.55;;;;;;;15.87;78.65;101761.50;5081436;28;20051;-69
2023/06/08 00:18:56;;;;;;;14.27;7.97;;;;;;;15.85;79.55;101765.94;5084166;28;20024;-70
2023/06/08 00:21:22;;;;;;;17.92;8.38;;;;;;;15.85;79.30;101760.69;5081089;28;20028;-70
2023/06/08 00:23:49;;;;;;;16.77;9.00;;;;;;;15.75;78.98;101767.13;5083876;28;20036;-70
2023/06/08 00:26:14;;;;;;;15.18;7.95;;;;;;;15.75;78.34;101764.50;5080558;28;20065;-70
2023/06/08 00:28:40;;;;;;;12.68;7.38;;;;;;;15.74;80.20;101768.03;5081523;28;20056;-70
2023/06/08 00:31:05;;;;;;;15.65;8.73;;;;;;;15.77;80.74;101762.69;5083731;28;20454;-70
2023/06/08 00:33:30;;;;;;;15.70;8.27;;;;;;;15.76;80.07;101758.31;5083305;28;20032;-70
2023/06/08 00:35:58;;;;;;;14.05;8.07;;;;;;;15.69;79.52;101752.38;5082828;28;20081;-70
2023/06/08 00:38:23;;;;;;;19.88;8.75;;;;;;;15.73;79.56;101761.03;5081309;28;20024;-70
2023/06/08 00:40:48;;;;;;;15.90;9.27;;;;;;;15.74;79.85;101762.78;5082903;28;20528;-70
2023/06/08 00:43:14;;;;;;;20.00;8.02;;;;;;;15.80;79.82;101759.97;5083188;28;20031;-70
2023/06/08 00:45:39;;;;;;;15.65;8.00;;;;;;;15.78;79.88;101749.50;5083795;28;20438;-70
2023/06/08 00:48:04;;;;;;;14.23;8.07;;;;;;;15.76;79.28;101739.91;5083151;28;20471;-70
2023/06/08 00:50:31;;;;;;;22.55;9.27;;;;;;;15.73;79.71;101750.53;5085253;28;20074;-70
2023/06/08 00:52:57;;;;;;;18.80;9.32;;;;;;;15.68;79.85;101746.28;5081197;28;20112;-70
2023/06/08 00:55:24;;;;;;;13.10;8.02;;;;;;;15.67;80.10;101741.94;5088049;28;20021;-70
2023/06/08 00:57:52;;;;;;;16.08;8.50;;;;;;;15.60;80.48;101745.63;5079202;28;20468;-70
2023/06/08 01:00:18;;;;;;;14.52;8.02;;;;;;;15.63;81.58;101748.16;5083027;28;20032;-70
2023/06/08 01:02:43;;;;;;;17.40;8.80;;;;;;;15.63;81.29;101742.91;5083003;28;20027;-70
2023/06/08 01:05:09;;;;;;;19.98;8.88;;;;;;;15.60;81.68;101734.25;5082549;28;20476;-70
2023/06/08 01:07:49;;;;;;;17.85;8.70;;;;;;;15.60;81.37;101736.88;5089113;28;20375;-70
2023/06/08 01:10:20;;;;;;;18.85;8.82;;;;;;;15.58;81.00;101742.19;5084866;28;20036;-70
2023/06/08 01:13:02;;;;;;;14.07;8.07;;;;;;;15.56;81.63;101740.50;5088111;28;20071;-70
2023/06/08 01:15:33;;;;;;;20.42;9.45;;;;;;;15.52;81.30;101739.72;5086480;28;20032;-70
2023/06/08 01:18:04;;;;;;;14.40;7.97;;;;;;;15.51;81.72;101738.00;5086341;28;20043;-70
2023/06/08 01:20:49;;;;;;;16.33;8.98;;;;;;;15.51;81.73;101737.16;5086060;28;20111;-70
2023/06/08 01:23:49;;;;;;;13.75;8.63;;;;;;;15.41;81.68;101739.19;5085698;28;20565;-70
2023/06/08 01:26:15;;;;;;;22.75;9.45;;;;;;;15.29;83.29;101734.28;5074709;28;20047;-70
2023/06/08 01:28:42;;;;;;;15.50;8.80;;;;;;;15.26;83.88;101737.84;5082442;28;20044;-70
2023/06/08 01:31:07;;;;;;;14.40;8.80;;;;;;;15.18;83.84;101730.22;5074038;28;20029;-70
2023/06/08 01:33:33;;;;;;;13.57;8.63;;;;;;;15.17;84.61;101728.50;5084932;28;20135;-70
2023/06/08 01:36:03;;;;;;;16.98;8.85;;;;;;;15.14;84.25;101732.94;5086930;28;20478;-70
2023/06/08 01:38:59;;;;;;;17.77;9.50;;;;;;;15.08;84.11;101736.63;5071617;28;20106;-70
2023/06/08 01:41:27;;;;;;;15.77;9.15;;;;;;;14.96;85.17;101740.44;5080447;28;20043;-70
2023/06/08 01:43:57;;;;;;;18.83;9.50;;;;;;;14.90;85.99;101734.50;5085476;28;20033;-70
2023/06/08 01:46:25;;;;;;;15.77;8.40;;;;;;;14.88;86.29;101733.69;5086552;28;20437;-70
2023/06/08 01:48:51;;;;;;;18.83;10.02;;;;;;;14.86;87.08;101735.50;5081516;28;20028;-70
2023/06/08 01:51:19;;;;;;;17.05;9.32;;;;;;;14.81;87.39;101732.13;5090199;28;20025;-70
2023/06/08 01:53:44;;;;;;;20.92;10.48;;;;;;;14.77;87.47;101726.09;5082601;28;20025;-70
2023/06/08 01:56:10;;;;;;;20.98;9.02;;;;;;;14.75;87.77;101726.16;5091045;28;20074;-69
2023/06/08 01:58:35;;;;;;;21.70;10.18;;;;;;;14.71;87.84;101727.13;5083284;28;20059;-70
2023/06/08 02:01:00;;;;;;;13.98;9.13;;;;;;;14.59;87.59;101711.72;5090307;28;20028;-69
2023/06/08 02:03:26;;;;;;;18.15;9.85;;;;;;;14.56;88.64;101713.56;5082430;28;20067;-69
2023/06/08 02:05:51;;;;;;;14.00;9.65;;;;;;;14.51;89.35;101717.13;5085612;28;20376;-70
2023/06/08 02:08:16;;;;;;;15.88;9.57;;;;;;;14.50;89.67;101725.91;5083875;28;20039;-69
2023/06/08 02:10:42;;;;;;;16.25;10.30;;;;;;;14.41;90.02;101718.25;5082766;28;20032;-70
2023/06/08 02:13:07;;;;;;;15.65;9.80;;;;;;;14.42;90.34;101716.47;5088646;28;20027;-70
2023/06/08 02:15:32;;;;;;;17.35;9.52;;;;;;;14.38;91.15;101725.34;5082336;28;20047;-70
2023/06/08 02:17:58;;;;;;;17.52;10.13;;;;;;;14.29;91.19;101729.94;5085822;28;20031;-70
2023/06/08 02:20:23;;;;;;;19.77;10.02;;;;;;;14.28;91.62;101725.56;5076534;28;20074;-70
2023/06/08 02:22:49;;;;;;;20.85;9.88;;;;;;;14.28;91.74;101730.81;5080649;28;20032;-70
2023/06/08 02:25:14;;;;;;;19.02;10.60;;;;;;;14.22;91.10;101738.84;5085414;28;20106;-70
2023/06/08 02:27:43;;;;;;;23.58;10.18;;;;;;;14.22;91.77;101730.09;5082415;28;20512;-70
2023/06/08 02:30:10;;;;;;;16.15;9.98;;;;;;;14.22;92.26;101738.84;5086086;28;20914;-70
2023/06/08 02:32:35;;;;;;;15.65;9.27;;;;;;;14.21;91.90;101731.84;5082908;28;20025;-70
2023/06/08 02:35:02;;;;;;;17.10;9.52;;;;;;;14.18;93.23;101720.59;5081254;28;20383;-70
2023/06/08 02:37:27;;;;;;;16.77;9.48;;;;;;;14.16;92.94;101730.25;5084064;28;20483;-70
2023/06/08 02:39:52;;;;;;;22.92;10.98;;;;;;;14.05;92.62;101725.25;5083882;28;20115;-70
2023/06/08 02:42:18;;;;;;;15.77;9.90;;;;;;;14.00;92.49;101725.38;5084936;28;20032;-70
2023/06/08 02:44:45;;;;;;;20.17;10.82;;;;;;;14.04;92.28;101732.28;5084955;28;20415;-70
2023/06/08 02:47:11;;;;;;;19.67;10.38;;;;;;;13.96;92.60;101722.84;5085960;28;20054;-70
2023/06/08 02:49:36;;;;;;;21.33;10.48;;;;;;;13.97;93.34;101732.47;5085711;28;20449;-70
2023/06/08 02:52:01;;;;;;;20.88;9.88;;;;;;;13.95;93.56;101723.75;5084405;28;20028;-70
2023/06/08 02:54:27;;;;;;;17.77;10.30;;;;;;;13.90;93.33;101718.63;5088297;28;20028;-70
2023/06/08 02:56:52;;;;;;;18.33;10.13;;;;;;;13.90;93.74;101728.25;5080977;28;20032;-70
2023/06/08 02:59:18;;;;;;;20.00;10.27;;;;;;;13.91;94.12;101724.72;5090545;28;20037;-70
2023/06/08 03:01:52;;;;;;;14.52;9.40;;;;;;;13.85;93.46;101717.00;5082113;28;20016;-70
2023/06/08 03:04:21;;;;;;;25.90;11.07;;;;;;;13.81;94.11;101727.56;5089982;28;20467;-69
2023/06/08 03:06:46;;;;;;;23.92;10.93;;;;;;;13.71;94.41;101723.44;5082115;28;20036;-70
2023/06/08 03:09:12;;;;;;;20.27;11.13;;;;;;;13.70;94.39;101724.34;5090436;28;20032;-70
2023/06/08 03:11:38;;;;;;;17.70;10.07;;;;;;;13.66;94.53;101727.03;5080957;28;20488;-70
2023/06/08 03:14:03;;;;;;;23.38;10.93;;;;;;;13.58;95.47;101719.34;5082322;28;20021;-70
2023/06/08 03:16:28;;;;;;;20.02;10.55;;;;;;;13.53;95.35;101716.81;5088113;28;20136;-70
2023/06/08 03:18:53;;;;;;;21.02;11.25;;;;;;;13.51;95.64;101728.25;5080948;28;20020;-70
2023/06/08 03:21:20;;;;;;;21.08;10.35;;;;;;;13.48;96.15;101717.84;5087903;28;20068;-70
2023/06/08 03:23:48;;;;;;;22.27;10.75;;;;;;;13.43;96.13;101719.69;5080868;28;20103;-70
2023/06/08 03:26:14;;;;;;;20.20;11.25;;;;;;;13.41;96.84;101729.34;5080925;28;20024;-70
2023/06/08 03:28:40;;;;;;;19.10;10.85;;;;;;;13.42;96.56;101729.31;5081116;28;20178;-70
2023/06/08 03:31:05;;;;;;;20.73;10.70;;;;;;;13.41;96.96;101726.72;5084356;28;20472;-70
2023/06/08 03:33:32;;;;;;;23.55;10.23;;;;;;;13.39;96.53;101725.88;5084661;28;20036;-70
2023/06/08 03:35:57;;;;;;;22.73;10.93;;;;;;;13.33;97.42;101719.88;5083216;28;20031;-70
2023/06/08 03:38:23;;;;;;;19.17;11.10;;;;;;;13.38;97.15;101721.56;5082963;28;20391;-70
2023/06/08 03:40:48;;;;;;;21.05;10.80;;;;;;;13.34;97.32;101726.84;5082683;28;20027;-70
2023/06/08 03:43:13;;;;;;;22.73;11.68;;;;;;;13.27;96.86;101734.84;5080966;28;20089;-70
2023/06/08 03:45:39;;;;;;;18.00;11.20;;;;;;;13.33;98.11;101729.50;5085270;28;20034;-70
2023/06/08 03:48:04;;;;;;;19.10;11.45;;;;;;;13.24;97.55;101729.63;5083943;28;20030;-70
2023/06/08 03:50:30;;;;;;;18.90;10.68;;;;;;;13.22;98.05;101724.44;5084634;28;20474;-70
2023/06/08 03:52:55;;;;;;;19.88;11.38;;;;;;;13.19;98.67;101719.28;5081982;28;20039;-70
2023/06/08 03:55:21;;;;;;;20.75;11.00;;;;;;;13.21;98.15;101720.13;5082453;28;20103;-70
2023/06/08 03:57:47;;;;;;;26.00;12.10;;;;;;;13.19;98.32;101715.78;5084380;28;20043;-70
2023/06/08 04:00:13;;;;;;;21.25;10.85;;;;;;;13.26;98.51;101720.91;5083072;28;20024;-70
2023/06/08 04:02:38;;;;;;;22.42;10.77;;;;;;;13.34;98.32;101719.00;5084215;28;20085;-70
2023/06/08 04:05:07;;;;;;;19.92;10.75;;;;;;;13.43;97.95;101720.53;5081580;28;20049;-70
2023/06/08 04:07:34;;;;;;;20.67;11.35;;;;;;;13.52;97.55;101720.34;5083319;28;20392;-70
2023/06/08 04:10:00;;;;;;;22.17;11.52;;;;;;;13.47;97.37;101721.34;5081669;28;20020;-70
2023/06/08 04:12:25;;;;;;;22.25;11.68;;;;;;;13.45;96.67;101720.53;5083669;28;20039;-70
2023/06/08 04:14:51;;;;;;;25.17;11.13;;;;;;;13.31;97.28;101699.88;5083186;28;20030;-70
2023/06/08 04:17:16;;;;;;;19.90;12.20;;;;;;;13.37;97.55;101723.28;5081573;28;20082;-70
2023/06/08 04:19:41;;;;;;;20.13;10.98;;;;;;;13.34;97.68;101726.84;5084082;28;20028;-70
2023/06/08 04:22:07;;;;;;;18.42;10.68;;;;;;;13.31;97.97;101715.59;5082588;28;20101;-70
2023/06/08 04:24:33;;;;;;;24.33;12.13;;;;;;;13.31;97.57;101715.59;5082680;28;20033;-70
2023/06/08 04:26:58;;;;;;;20.67;11.60;;;;;;;13.34;97.27;101715.50;5083634;28;20403;-70
2023/06/08 04:29:24;;;;;;;17.42;11.40;;;;;;;13.37;97.94;101722.44;5081819;28;20037;-70
2023/06/08 04:31:49;;;;;;;22.00;11.15;;;;;;;13.37;97.55;101720.66;5086988;28;20028;-70
2023/06/08 04:34:15;;;;;;;18.23;11.23;;;;;;;13.39;97.31;101721.50;5079905;28;20017;-70
2023/06/08 04:36:43;;;;;;;19.92;11.15;;;;;;;13.36;97.96;101705.84;5087287;28;20103;-70
2023/06/08 04:39:09;;;;;;;21.00;12.13;;;;;;;13.41;97.41;101717.09;5067884;28;20077;-70
2023/06/08 04:41:35;;;;;;;22.58;11.65;;;;;;;13.43;97.58;101711.81;5076619;28;20028;-70
2023/06/08 04:44:05;;;;;;;21.42;11.40;;;;;;;13.49;97.75;101722.19;5072634;28;20036;-70
2023/06/08 04:46:33;;;;;;;25.63;12.45;;;;;;;13.51;96.78;101702.06;5080562;28;20522;-70
2023/06/08 04:48:59;;;;;;;21.00;11.93;;;;;;;13.52;97.49;101709.88;5087409;28;20482;-70
2023/06/08 04:51:29;;;;;;;17.92;11.48;;;;;;;13.53;97.09;101713.34;5080504;28;20025;-70
2023/06/08 04:53:59;;;;;;;27.80;12.27;;;;;;;13.54;97.05;101722.94;5088669;28;20062;-70
2023/06/08 04:56:28;;;;;;;17.90;11.70;;;;;;;13.55;97.25;101725.53;5079863;28;20028;-70
2023/06/08 04:58:53;;;;;;;22.55;12.05;;;;;;;13.54;96.15;101723.81;5080100;28;20497;-69
2023/06/08 05:01:18;;;;;;;25.55;12.98;;;;;;;13.55;96.53;101715.03;5086069;28;20021;-70
2023/06/08 05:03:44;;;;;;;22.65;12.40;;;;;;;13.66;96.03;101714.78;5079630;28;20059;-70
2023/06/08 05:06:09;;;;;;;19.70;12.50;;;;;;;13.68;95.89;101710.41;5086242;28;20474;-70
2023/06/08 05:08:34;;;;;;;21.15;12.98;;;;;;;13.66;96.26;101699.06;5080592;28;20079;-70
2023/06/08 05:11:00;;;;;;;22.50;12.40;;;;;;;13.65;94.95;101713.09;5085090;28;20028;-70
2023/06/08 05:13:25;;;;;;;25.10;12.45;;;;;;;13.61;95.64;101708.81;5080785;28;20395;-70
2023/06/08 05:15:50;;;;;;;19.20;12.43;;;;;;;13.62;94.97;101704.44;5083908;28;20031;-70
2023/06/08 05:18:16;;;;;;;18.65;11.98;;;;;;;13.63;95.58;101701.75;5082146;28;20017;-70
2023/06/08 05:20:41;;;;;;;26.60;13.15;;;;;;;13.65;95.23;101707.84;5081740;28;20107;-70
2023/06/08 05:23:06;;;;;;;24.20;12.75;;;;;;;13.66;95.54;101712.19;5083390;28;20039;-70
2023/06/08 05:25:34;;;;;;;19.75;12.25;;;;;;;13.70;95.04;101712.97;5080992;28;20013;-70
2023/06/08 05:27:59;;;;;;;24.23;12.57;;;;;;;13.82;95.23;101705.69;5083024;28;20051;-70
2023/06/08 05:30:25;;;;;;;20.08;12.10;;;;;;;13.91;95.33;101707.25;5080807;28;20024;-70
2023/06/08 05:32:51;;;;;;;22.60;13.38;;;;;;;13.96;93.88;101707.13;5083152;28;20032;-70
2023/06/08 05:35:16;;;;;;;18.27;12.20;;;;;;;13.96;93.06;101701.88;5083308;28;20024;-70
2023/06/08 05:37:41;;;;;;;20.88;12.27;;;;;;;13.94;92.69;101714.19;5076423;28;20024;-70
2023/06/08 05:40:07;;;;;;;23.55;13.20;;;;;;;13.90;92.59;101699.44;5075093;28;20027;-70
2023/06/08 05:42:33;;;;;;;18.85;12.55;;;;;;;13.95;92.87;101695.78;5083686;28;20095;-70
2023/06/08 05:44:58;;;;;;;26.08;13.73;;;;;;;13.96;92.22;101701.88;5081870;28;20154;-70
2023/06/08 05:47:23;;;;;;;19.17;11.75;;;;;;;14.04;92.67;101699.94;5077430;28;20037;-70
2023/06/08 05:49:48;;;;;;;24.50;13.85;;;;;;;14.15;93.40;101697.06;5080429;28;20062;-70
2023/06/08 05:52:14;;;;;;;23.20;12.57;;;;;;;14.18;91.82;101696.97;5084334;28;20032;-70
2023/06/08 05:54:39;;;;;;;22.75;13.35;;;;;;;14.19;90.98;101696.06;5084674;28;20360;-70
2023/06/08 05:57:05;;;;;;;22.60;12.50;;;;;;;14.28;91.30;101691.47;5085710;28;20046;-70
2023/06/08 05:59:30;;;;;;;26.35;13.02;;;;;;;14.32;90.28;101686.13;5086105;28;20466;-70
2023/06/08 06:01:56;;;;;;;25.67;13.18;;;;;;;14.43;90.98;101695.47;5083950;28;20054;-70
2023/06/08 06:04:21;;;;;;;22.60;12.07;;;;;;;14.55;91.39;101693.44;5086573;28;20357;-70
2023/06/08 06:06:46;;;;;;;19.52;12.38;;;;;;;14.63;89.93;101696.75;5084889;28;20115;-70
2023/06/08 06:09:11;;;;;;;20.40;12.30;;;;;;;14.70;89.91;101699.16;5084565;28;20058;-70
2023/06/08 06:11:37;;;;;;;23.05;12.73;;;;;;;14.73;88.85;101692.97;5087752;28;20043;-70
2023/06/08 06:14:03;;;;;;;22.95;12.95;;;;;;;14.73;88.56;101688.56;5082344;28;20020;-70
2023/06/08 06:16:28;;;;;;;23.63;13.30;;;;;;;14.76;87.56;101692.88;5089224;28;20037;-70
2023/06/08 06:18:53;;;;;;;22.05;12.98;;;;;;;14.80;88.05;101684.00;5082536;28;20107;-70
2023/06/08 06:21:19;;;;;;;25.02;13.60;;;;;;;14.78;88.02;101680.59;5088929;28;20028;-70
2023/06/08 06:23:46;;;;;;;23.88;14.43;;;;;;;14.82;88.39;101692.72;5082881;28;20365;-70
2023/06/08 06:26:12;;;;;;;26.83;13.98;;;;;;;14.84;88.42;101690.88;5088690;28;20039;-70
2023/06/08 06:28:38;;;;;;;22.23;13.93;;;;;;;14.93;88.90;101689.78;5082300;28;20055;-70
2023/06/08 06:31:04;;;;;;;21.77;12.98;;;;;;;14.99;88.14;101694.88;5086958;28;20146;-70
2023/06/08 06:33:30;;;;;;;23.42;14.15;;;;;;;15.08;88.47;101696.38;5084503;28;20107;-70
2023/06/08 06:35:55;;;;;;;24.90;14.75;;;;;;;15.14;87.42;101690.94;5084829;28;20158;-70
2023/06/08 06:38:20;;;;;;;24.20;14.07;;;;;;;15.21;87.01;101688.09;5074073;28;20029;-70
2023/06/08 06:40:49;;;;;;;21.65;13.73;;;;;;;15.33;86.11;101697.38;5085887;28;20107;-70
2023/06/08 06:43:14;;;;;;;29.58;14.85;;;;;;;15.44;86.39;101697.06;5088181;28;20098;-70
2023/06/08 06:45:40;;;;;;;22.20;13.80;;;;;;;15.55;86.39;101694.09;5085451;28;20424;-70
2023/06/08 06:48:05;;;;;;;23.13;13.48;;;;;;;15.68;85.40;101696.34;5085309;28;20099;-70
2023/06/08 06:50:31;;;;;;;26.10;13.85;;;;;;;15.77;84.52;101705.72;5085516;28;20028;-70
2023/06/08 06:52:56;;;;;;;22.15;14.32;;;;;;;15.79;83.84;101698.63;5083543;28;20027;-70
2023/06/08 06:55:21;;;;;;;21.00;13.48;;;;;;;15.82;83.98;101700.28;5079210;28;20025;-70
2023/06/08 06:57:48;;;;;;;24.67;14.60;;;;;;;15.94;85.39;101705.16;5084989;28;20115;-70
2023/06/08 07:00:14;;;;;;;24.95;14.02;;;;;;;16.00;83.65;101699.72;5082873;28;20016;-70
2023/06/08 07:02:40;;;;;;;23.77;14.25;;;;;;;16.08;83.47;101700.31;5084436;28;20066;-70
2023/06/08 07:05:07;;;;;;;23.40;13.40;;;;;;;16.19;82.11;101701.75;5082991;28;20021;-70
2023/06/08 07:07:32;;;;;;;19.77;13.88;;;;;;;16.27;82.43;101702.34;5085269;28;20467;-70
2023/06/08 07:09:58;;;;;;;22.20;13.82;;;;;;;16.34;83.62;101699.44;5082292;28;20171;-70
2023/06/08 07:12:23;;;;;;;25.05;14.93;;;;;;;16.37;80.18;101706.38;5084815;28;20062;-70
2023/06/08 07:14:48;;;;;;;23.52;14.30;;;;;;;16.42;81.75;101698.34;5085314;28;20028;-70
2023/06/08 07:17:14;;;;;;;22.80;14.02;;;;;;;16.46;81.58;101699.97;5086131;28;20021;-70
2023/06/08 07:19:41;;;;;;;27.17;14.52;;;;;;;16.51;80.47;101696.25;5085256;28;20039;-70
2023/06/08 07:22:07;;;;;;;24.20;14.07;;;;;;;16.67;81.45;101709.72;5088180;28;20028;-70
2023/06/08 07:24:32;;;;;;;21.67;15.18;;;;;;;16.73;80.44;101703.38;5081231;28;20024;-70
2023/06/08 07:26:57;;;;;;;23.90;14.90;;;;;;;16.77;78.94;101702.38;5081407;28;20036;-70
2023/06/08 07:29:23;;;;;;;25.63;15.20;;;;;;;16.80;79.23;101686.47;5081912;28;20071;-70
2023/06/08 07:31:48;;;;;;;33.78;15.20;;;;;;;16.96;78.34;101697.31;5087588;28;20038;-70
2023/06/08 07:34:13;;;;;;;22.67;14.18;;;;;;;17.00;78.91;101689.28;5081790;28;20016;-70
2023/06/08 07:36:39;;;;;;;26.83;14.77;;;;;;;17.11;79.81;101695.91;5088216;28;20416;-70
2023/06/08 07:39:04;;;;;;;21.95;14.52;;;;;;;17.21;77.32;101700.78;5072595;28;20024;-70
2023/06/08 07:41:30;;;;;;;28.83;14.25;;;;;;;17.20;77.43;101692.91;5082094;28;20130;-70
2023/06/08 07:43:56;;;;;;;22.45;14.55;;;;;;;17.35;78.64;101699.41;5088961;28;20028;-70
2023/06/08 07:46:21;;;;;;;22.48;14.13;;;;;;;17.41;77.39;101684.22;5081458;28;20066;-70
2023/06/08 07:48:47;;;;;;;23.27;15.35;;;;;;;17.52;79.08;101692.53;5081864;28;20069;-70
2023/06/08 07:51:14;;;;;;;23.77;15.27;;;;;;;17.62;77.31;101693.03;5085355;28;20036;-70
2023/06/08 07:53:39;;;;;;;20.98;14.80;;;;;;;17.71;77.68;101684.78;5081076;28;20032;-70
2023/06/08 07:56:05;;;;;;;25.63;15.38;;;;;;;17.81;76.27;101692.34;5087467;28;20027;-70
2023/06/08 07:58:31;;;;;;;26.48;14.55;;;;;;;17.94;76.78;101685.66;5080291;28;20029;-70
2023/06/08 08:00:57;;;;;;;27.13;15.02;;;;;;;18.09;75.96;101685.03;5086925;28;20032;-70
2023/06/08 08:03:22;;;;;;;24.98;14.18;;;;;;;18.23;77.22;101685.31;5081337;28;20044;-82
2023/06/08 08:05:49;;;;;;;20.65;14.77;;;;;;;18.29;75.63;101681.56;5085407;28;20057;-82
2023/06/08 08:08:15;;;;;;;24.88;14.35;;;;;;;18.42;74.17;101688.03;5082063;28;20118;-71
2023/06/08 08:10:40;;;;;;;25.38;15.15;;;;;;;18.47;73.01;101680.78;5084451;28;20042;-70
2023/06/08 08:13:05;;;;;;;23.48;14.10;;;;;;;18.51;73.24;101678.88;5083103;28;20031;-70
2023/06/08 08:15:30;;;;;;;24.88;14.15;;;;;;;18.57;72.98;101683.00;5081910;28;20028;-70
2023/06/08 08:17:56;;;;;;;24.98;15.73;;;;;;;18.59;72.71;101682.03;5083661;28;20074;-70
2023/06/08 08:20:22;;;;;;;24.38;15.75;;;;;;;18.66;72.81;101680.81;5081554;28;20024;-70
2023/06/08 08:22:47;;;;;;;22.67;15.40;;;;;;;18.74;72.17;101682.28;5083865;28;20028;-71
2023/06/08 08:25:12;;;;;;;22.48;14.35;;;;;;;18.79;72.06;101677.69;5082836;28;20056;-70
2023/06/08 08:27:38;;;;;;;23.08;15.30;;;;;;;18.89;71.71;101677.19;5082430;28;20039;-70
2023/06/08 08:30:03;;;;;;;23.30;15.25;;;;;;;19.03;71.49;101667.78;5084031;28;20028;-70
2023/06/08 08:32:29;;;;;;;22.02;14.63;;;;;;;19.15;69.99;101672.50;5082334;28;20040;-70
2023/06/08 08:34:54;;;;;;;21.95;15.18;;;;;;;19.20;70.54;101667.88;5082978;28;20413;-70
2023/06/08 08:37:20;;;;;;;27.77;14.77;;;;;;;19.32;70.32;101677.00;5083718;28;20025;-71
2023/06/08 08:39:46;;;;;;;22.25;14.60;;;;;;;19.40;70.28;101672.22;5076634;28;20031;-70
2023/06/08 08:42:18;;;;;;;23.88;15.00;;;;;;;19.52;69.38;101674.31;5083043;28;20024;-70
2023/06/08 08:44:45;;;;;;;22.15;14.70;;;;;;;19.61;69.45;101672.97;5080771;28;20032;-70
2023/06/08 08:47:13;;;;;;;21.80;14.63;;;;;;;19.60;68.00;101666.84;5083201;28;20099;-70
2023/06/08 08:49:44;;;;;;;23.52;15.48;;;;;;;19.69;68.28;101672.66;5080847;28;20102;-71
2023/06/08 08:52:10;;;;;;;22.05;14.43;;;;;;;19.80;68.52;101672.97;5071605;28;20028;-70
2023/06/08 08:54:38;;;;;;;21.25;14.77;;;;;;;19.87;66.22;101671.75;5081767;28;20028;-69
2023/06/08 08:57:06;;;;;;;23.67;15.35;;;;;;;20.02;68.50;101673.63;5082804;28;20052;-69
2023/06/08 08:59:32;;;;;;;23.75;14.50;;;;;;;20.19;66.79;101667.50;5083761;28;20040;-68
2023/06/08 09:01:57;;;;;;;19.70;14.35;;;;;;;20.34;65.34;101657.94;5080236;28;20029;-68
2023/06/08 09:04:23;;;;;;;18.73;13.70;;;;;;;20.47;66.11;101671.38;5083970;28;20085;-68
2023/06/08 09:06:50;;;;;;;17.90;13.45;;;;;;;20.58;66.06;101677.00;5082437;28;20066;-68
2023/06/08 09:09:15;;;;;;;20.42;14.55;;;;;;;20.75;65.49;101662.88;5081673;28;20107;-69
2023/06/08 09:11:59;;;;;;;16.17;13.65;;;;;;;20.86;65.20;101667.59;5084121;28;20068;-68
2023/06/08 09:14:26;;;;;;;21.35;13.80;;;;;;;20.83;63.73;101660.69;5083017;28;20364;-69
2023/06/08 09:16:53;;;;;;;18.42;13.25;;;;;;;20.87;63.97;101654.28;5083027;28;20024;-69
2023/06/08 09:19:19;;;;;;;23.60;13.48;;;;;;;21.00;64.32;101659.78;5081777;28;20042;-69
2023/06/08 09:21:45;;;;;;;17.35;14.20;;;;;;;20.95;62.41;101661.78;5085322;28;20468;-68
2023/06/08 09:24:20;;;;;;;20.05;13.52;;;;;;;21.05;63.26;101658.56;5079662;28;20030;-69
2023/06/08 09:26:55;;;;;;;20.23;13.85;;;;;;;21.13;62.07;101652.00;5075030;28;20037;-69
2023/06/08 09:29:40;;;;;;;20.95;13.32;;;;;;;21.26;62.82;101651.22;5080832;28;20039;-71
2023/06/08 09:32:07;;;;;;;18.60;12.25;;;;;;;21.49;62.81;101646.47;5088084;28;20032;-71
2023/06/08 09:34:47;;;;;;;18.40;12.38;;;;;;;21.60;62.06;101649.38;5085036;28;20029;-71
2023/06/08 09:37:14;;;;;;;17.25;11.55;;;;;;;21.74;60.01;101652.09;5087128;28;20033;-70
2023/06/08 09:39:40;;;;;;;17.00;10.30;;;;;;;21.86;61.16;101639.91;5079044;28;20040;-70
2023/06/08 09:42:06;;;;;;;17.33;11.80;;;;;;;22.05;59.98;101639.69;5087214;28;20028;-71
2023/06/08 09:44:31;;;;;;;16.75;11.77;;;;;;;22.27;60.69;101635.75;5086865;28;20078;-70
2023/06/08 09:46:57;;;;;;;16.40;12.20;;;;;;;22.32;58.22;101641.66;5086202;28;20554;-71
2023/06/08 09:49:23;;;;;;;16.27;11.45;;;;;;;22.22;57.93;101630.75;5086406;28;20081;-71
2023/06/08 09:51:50;;;;;;;14.50;10.52;;;;;;;22.36;58.95;101643.19;5083672;28;20103;-71
2023/06/08 09:54:16;;;;;;;17.70;10.60;;;;;;;22.54;58.75;101642.06;5086787;28;20082;-71
2023/06/08 09:56:46;;;;;;;12.95;10.20;;;;;;;22.62;55.90;101634.47;5085021;28;20075;-71
2023/06/08 09:59:15;;;;;;;16.10;11.07;;;;;;;22.60;55.79;101635.53;5086077;28;20089;-71
2023/06/08 10:02:02;;;;;;;16.48;9.88;;;;;;;22.77;59.15;101637.16;5085776;28;20016;-71
2023/06/08 10:04:35;;;;;;;16.92;10.98;;;;;;;22.87;57.28;101630.31;5072820;28;20036;-71
2023/06/08 10:07:17;;;;;;;18.55;10.35;;;;;;;22.92;55.12;101630.84;5084160;28;20054;-71
2023/06/08 10:09:44;;;;;;;13.38;9.20;;;;;;;23.05;56.84;101621.22;5086510;28;20036;-71
2023/06/08 10:12:11;;;;;;;14.52;9.90;;;;;;;23.25;54.74;101616.38;5083666;28;20104;-71
2023/06/08 10:14:37;;;;;;;15.45;10.57;;;;;;;23.28;53.16;101617.06;5086275;28;20106;-70
2023/06/08 10:17:03;;;;;;;13.43;9.35;;;;;;;23.47;55.09;101607.88;5085076;28;20111;-71
2023/06/08 10:19:31;;;;;;;16.52;9.25;;;;;;;23.63;52.57;101621.03;5084885;28;20036;-71
2023/06/08 10:21:57;;;;;;;12.27;8.88;;;;;;;23.68;54.13;101616.28;5086606;28;20043;-70
2023/06/08 10:24:25;;;;;;;13.15;8.85;;;;;;;23.77;53.08;101618.31;5084290;28;20112;-70
2023/06/08 10:26:50;;;;;;;12.50;8.52;;;;;;;23.87;51.95;101619.44;5086993;28;20094;-70
2023/06/08 10:29:16;;;;;;;13.93;10.32;;;;;;;23.80;51.20;101610.13;5082729;28;20471;-69
2023/06/08 10:31:46;;;;;;;9.55;7.80;;;;;;;23.74;51.77;101610.53;5089785;28;20028;-69
2023/06/08 10:34:14;;;;;;;11.63;8.05;;;;;;;23.85;51.96;101608.03;5082035;28;20025;-70
2023/06/08 10:36:42;;;;;;;11.35;7.57;;;;;;;24.08;52.41;101605.63;5089848;28;20028;-70
2023/06/08 10:39:13;;;;;;;13.05;7.00;;;;;;;24.29;51.15;101607.63;5078069;28;20024;-69
2023/06/08 10:41:38;;;;;;;8.05;6.65;;;;;;;24.33;50.08;101589.66;5080406;28;20031;-70
2023/06/08 10:44:04;;;;;;;9.02;6.40;;;;;;;24.35;50.05;101595.72;5085981;28;20024;-70
2023/06/08 10:46:42;;;;;;;10.90;6.70;;;;;;;24.36;49.76;101593.91;5084438;28;20024;-70
2023/06/08 10:49:08;;;;;;;8.88;6.72;;;;;;;24.51;49.71;101588.38;5070639;28;20368;-70
2023/06/08 10:51:45;;;;;;;10.05;6.90;;;;;;;24.71;50.42;101589.63;5084424;28;20039;-69
2023/06/08 10:54:21;;;;;;;12.38;8.23;;;;;;;24.77;49.23;101589.19;5069500;28;20063;-70
2023/06/08 10:56:52;;;;;;;8.52;7.47;;;;;;;24.86;48.92;101590.34;5082714;28;20482;-69
2023/06/08 10:59:36;;;;;;;10.63;7.72;;;;;;;24.93;48.45;101583.63;5070993;28;20077;-70
2023/06/08 11:02:04;;;;;;;12.05;7.30;;;;;;;25.26;49.86;101579.47;5080730;28;20111;-70
2023/06/08 11:04:30;;;;;;;9.77;7.55;;;;;;;25.32;47.94;101573.69;5085260;28;20468;-70
2023/06/08 11:07:13;;;;;;;8.50;6.93;;;;;;;25.34;48.94;101576.22;5083421;28;20028;-69
2023/06/08 11:09:39;;;;;;;;;;;;;;;25.40;48.98;101571.28;5074024;28;20126;-70
2023/06/08 11:12:05;;;;;;;11.98;8.30;;;;;;;25.37;47.72;101568.00;5083521;28;20331;-69